Terminal Aerodrome Forecast
Issued by NWS

Home | Current Version | Previous Version | Text Only | Print | Product List | Glossary On
Versions: 1 2 3 4 5 6 7 8 9 10 11 12 13 14 15 16 17 18 19 20 21 22 23
817
FTUS43 KDLH 141828 AAB
TAFHIB
TAF AMD
KHIB 141828Z 1418/1518 16008G15KT 5SM -SN OVC040
      TEMPO 1418/1420 2SM -SN OVC020
     FM142000 16010KT 4SM -SN OVC020
      TEMPO 1420/1424 2SM -SN OVC015
     FM150000 16012KT 2SM -SN OVC015
     FM150400 18008KT 3SM -SN OVC020
     FM150900 19005KT 6SM -SN OVC025
     FM151400 23006KT P6SM OVC030=

USA.gov is the U.S. government's official web portal to all federal, state and local government web resources and services.